sensor_id;sensor_type;location;lat;lon;timestamp;temperature;humidity
30186;DHT22;31152;49.190;8.122;2022-11-06T00:01:57;5.90;99.90
30186;DHT22;31152;49.190;8.122;2022-11-06T00:04:24;5.90;99.90
30186;DHT22;31152;49.190;8.122;2022-11-06T00:06:53;5.80;99.90
30186;DHT22;31152;49.190;8.122;2022-11-06T00:09:23;5.80;99.90
30186;DHT22;31152;49.190;8.122;2022-11-06T00:11:52;5.80;99.90
30186;DHT22;31152;49.190;8.122;2022-11-06T00:14:21;5.80;99.90
30186;DHT22;31152;49.190;8.122;2022-11-06T00:16:48;5.80;99.90
30186;DHT22;31152;49.190;8.122;2022-11-06T00:19:15;5.70;99.90
30186;DHT22;31152;49.190;8.122;2022-11-06T00:21:42;5.70;99.90
30186;DHT22;31152;49.190;8.122;2022-11-06T00:24:15;5.70;99.90
30186;DHT22;31152;49.190;8.122;2022-11-06T00:26:42;5.70;99.90
30186;DHT22;31152;49.190;8.122;2022-11-06T00:29:13;5.70;99.90
30186;DHT22;31152;49.190;8.122;2022-11-06T00:31:40;5.70;99.90
30186;DHT22;31152;49.190;8.122;2022-11-06T00:34:08;5.60;99.90
30186;DHT22;31152;49.190;8.122;2022-11-06T00:36:36;5.60;99.90
30186;DHT22;31152;49.190;8.122;2022-11-06T00:39:02;5.50;99.90
30186;DHT22;31152;49.190;8.122;2022-11-06T00:41:31;5.50;99.90
30186;DHT22;31152;49.190;8.122;2022-11-06T00:43:59;5.50;99.90
30186;DHT22;31152;49.190;8.122;2022-11-06T00:46:27;5.40;99.90
30186;DHT22;31152;49.190;8.122;2022-11-06T00:48:55;5.40;99.90
30186;DHT22;31152;49.190;8.122;2022-11-06T00:51:27;5.30;99.90
30186;DHT22;31152;49.190;8.122;2022-11-06T00:53:58;5.30;99.90
30186;DHT22;31152;49.190;8.122;2022-11-06T00:56:26;5.20;99.90
30186;DHT22;31152;49.190;8.122;2022-11-06T00:58:53;5.20;99.90
30186;DHT22;31152;49.190;8.122;2022-11-06T01:01:23;5.20;99.90
30186;DHT22;31152;49.190;8.122;2022-11-06T01:03:54;5.20;99.90
30186;DHT22;31152;49.190;8.122;2022-11-06T01:06:28;5.20;99.90
30186;DHT22;31152;49.190;8.122;2022-11-06T01:08:56;5.10;99.90
30186;DHT22;31152;49.190;8.122;2022-11-06T01:11:28;5.20;99.90
30186;DHT22;31152;49.190;8.122;2022-11-06T01:14:17;5.20;99.90
30186;DHT22;31152;49.190;8.122;2022-11-06T01:16:45;5.20;99.90
30186;DHT22;31152;49.190;8.122;2022-11-06T01:19:16;5.20;99.90
30186;DHT22;31152;49.190;8.122;2022-11-06T01:21:45;5.20;99.90
30186;DHT22;31152;49.190;8.122;2022-11-06T01:24:32;5.20;99.90
30186;DHT22;31152;49.190;8.122;2022-11-06T01:27:00;5.10;99.90
30186;DHT22;31152;49.190;8.122;2022-11-06T01:29:47;5.10;99.90
30186;DHT22;31152;49.190;8.122;2022-11-06T01:32:13;5.10;99.90
30186;DHT22;31152;49.190;8.122;2022-11-06T01:34:40;5.10;99.90
30186;DHT22;31152;49.190;8.122;2022-11-06T01:37:07;5.10;99.90
30186;DHT22;31152;49.190;8.122;2022-11-06T01:39:39;5.10;99.90
30186;DHT22;31152;49.190;8.122;2022-11-06T01:42:10;5.10;99.90
30186;DHT22;31152;49.190;8.122;2022-11-06T01:47:25;5.10;99.90
30186;DHT22;31152;49.190;8.122;2022-11-06T01:50:07;5.10;99.90
30186;DHT22;31152;49.190;8.122;2022-11-06T01:52:37;5.10;99.90
30186;DHT22;31152;49.190;8.122;2022-11-06T01:55:24;5.10;99.90
30186;DHT22;31152;49.190;8.122;2022-11-06T01:57:54;5.00;99.90
30186;DHT22;31152;49.190;8.122;2022-11-06T02:00:21;5.00;99.90
30186;DHT22;31152;49.190;8.122;2022-11-06T02:02:48;5.00;99.90
30186;DHT22;31152;49.190;8.122;2022-11-06T02:05:16;4.90;99.90
30186;DHT22;31152;49.190;8.122;2022-11-06T02:07:43;4.90;99.90
30186;DHT22;31152;49.190;8.122;2022-11-06T02:10:13;4.80;99.90
30186;DHT22;31152;49.190;8.122;2022-11-06T02:21:23;4.80;99.90
30186;DHT22;31152;49.190;8.122;2022-11-06T02:27:13;4.80;99.90
30186;DHT22;31152;49.190;8.122;2022-11-06T02:34:57;4.50;99.90
30186;DHT22;31152;49.190;8.122;2022-11-06T02:37:29;4.50;99.90
30186;DHT22;31152;49.190;8.122;2022-11-06T02:40:00;4.50;99.90
30186;DHT22;31152;49.190;8.122;2022-11-06T02:42:29;4.50;99.90
30186;DHT22;31152;49.190;8.122;2022-11-06T02:44:56;4.50;99.90
30186;DHT22;31152;49.190;8.122;2022-11-06T02:47:25;4.40;99.90
30186;DHT22;31152;49.190;8.122;2022-11-06T02:49:59;4.40;99.90
30186;DHT22;31152;49.190;8.122;2022-11-06T02:52:44;4.40;99.90
30186;DHT22;31152;49.190;8.122;2022-11-06T02:55:17;4.40;99.90
30186;DHT22;31152;49.190;8.122;2022-11-06T02:57:48;4.40;99.90
30186;DHT22;31152;49.190;8.122;2022-11-06T03:00:16;4.40;99.90
30186;DHT22;31152;49.190;8.122;2022-11-06T03:03:23;4.40;99.90
30186;DHT22;31152;49.190;8.122;2022-11-06T03:06:22;4.30;99.90
30186;DHT22;31152;49.190;8.122;2022-11-06T03:09:07;4.30;99.90
30186;DHT22;31152;49.190;8.122;2022-11-06T03:11:38;4.30;99.90
30186;DHT22;31152;49.190;8.122;2022-11-06T03:14:20;4.30;99.90
30186;DHT22;31152;49.190;8.122;2022-11-06T03:16:58;4.20;99.90
30186;DHT22;31152;49.190;8.122;2022-11-06T03:19:44;4.20;99.90
30186;DHT22;31152;49.190;8.122;2022-11-06T03:22:28;4.00;99.90
30186;DHT22;31152;49.190;8.122;2022-11-06T03:25:34;4.10;99.90
30186;DHT22;31152;49.190;8.122;2022-11-06T03:28:13;4.00;99.90
30186;DHT22;31152;49.190;8.122;2022-11-06T03:30:53;4.00;99.90
30186;DHT22;31152;49.190;8.122;2022-11-06T03:33:35;4.00;99.90
30186;DHT22;31152;49.190;8.122;2022-11-06T03:36:17;4.00;99.90
30186;DHT22;31152;49.190;8.122;2022-11-06T03:42:01;4.00;99.90
30186;DHT22;31152;49.190;8.122;2022-11-06T03:44:30;4.10;99.90
30186;DHT22;31152;49.190;8.122;2022-11-06T03:47:46;4.10;99.90
30186;DHT22;31152;49.190;8.122;2022-11-06T03:50:09;4.10;99.90
30186;DHT22;31152;49.190;8.122;2022-11-06T03:52:43;4.10;99.90
30186;DHT22;31152;49.190;8.122;2022-11-06T03:55:18;4.10;99.90
30186;DHT22;31152;49.190;8.122;2022-11-06T03:57:53;4.00;99.90
30186;DHT22;31152;49.190;8.122;2022-11-06T04:00:21;4.00;99.90
30186;DHT22;31152;49.190;8.122;2022-11-06T04:02:58;4.00;99.90
30186;DHT22;31152;49.190;8.122;2022-11-06T04:05:39;4.00;99.90
30186;DHT22;31152;49.190;8.122;2022-11-06T04:08:10;4.00;99.90
30186;DHT22;31152;49.190;8.122;2022-11-06T04:10:58;4.00;99.90
30186;DHT22;31152;49.190;8.122;2022-11-06T04:13:47;4.00;99.90
30186;DHT22;31152;49.190;8.122;2022-11-06T04:16:42;4.00;99.90
30186;DHT22;31152;49.190;8.122;2022-11-06T04:19:19;4.00;99.90
30186;DHT22;31152;49.190;8.122;2022-11-06T04:30:32;3.80;99.90
30186;DHT22;31152;49.190;8.122;2022-11-06T04:33:17;3.80;99.90
30186;DHT22;31152;49.190;8.122;2022-11-06T04:38:39;3.80;99.90
30186;DHT22;31152;49.190;8.122;2022-11-06T04:43:53;3.70;99.90
30186;DHT22;31152;49.190;8.122;2022-11-06T04:46:44;3.70;99.90
30186;DHT22;31152;49.190;8.122;2022-11-06T04:49:15;3.60;99.90
30186;DHT22;31152;49.190;8.122;2022-11-06T04:51:44;3.60;99.90
30186;DHT22;31152;49.190;8.122;2022-11-06T04:54:13;3.50;99.90
30186;DHT22;31152;49.190;8.122;2022-11-06T04:56:45;3.50;99.90
30186;DHT22;31152;49.190;8.122;2022-11-06T04:59:16;3.50;99.90
30186;DHT22;31152;49.190;8.122;2022-11-06T05:01:45;3.50;99.90
30186;DHT22;31152;49.190;8.122;2022-11-06T05:04:14;3.40;99.90
30186;DHT22;31152;49.190;8.122;2022-11-06T05:06:41;3.40;99.90
30186;DHT22;31152;49.190;8.122;2022-11-06T05:09:11;3.30;99.90
30186;DHT22;31152;49.190;8.122;2022-11-06T05:11:37;3.40;99.90
30186;DHT22;31152;49.190;8.122;2022-11-06T05:14:09;3.40;99.90
30186;DHT22;31152;49.190;8.122;2022-11-06T05:16:36;3.30;99.90
30186;DHT22;31152;49.190;8.122;2022-11-06T05:19:03;3.30;99.90
30186;DHT22;31152;49.190;8.122;2022-11-06T05:21:30;3.30;99.90
30186;DHT22;31152;49.190;8.122;2022-11-06T05:24:17;3.30;99.90
30186;DHT22;31152;49.190;8.122;2022-11-06T05:26:44;3.20;99.90
30186;DHT22;31152;49.190;8.122;2022-11-06T05:29:12;3.20;99.90
30186;DHT22;31152;49.190;8.122;2022-11-06T05:31:41;3.20;99.90
30186;DHT22;31152;49.190;8.122;2022-11-06T05:34:10;3.10;99.90
30186;DHT22;31152;49.190;8.122;2022-11-06T05:36:36;3.10;99.90
30186;DHT22;31152;49.190;8.122;2022-11-06T05:39:03;3.20;99.90
30186;DHT22;31152;49.190;8.122;2022-11-06T05:41:30;3.10;99.90
30186;DHT22;31152;49.190;8.122;2022-11-06T05:43:57;3.10;99.90
30186;DHT22;31152;49.190;8.122;2022-11-06T05:46:23;3.10;99.90
30186;DHT22;31152;49.190;8.122;2022-11-06T05:49:10;3.10;99.90
30186;DHT22;31152;49.190;8.122;2022-11-06T05:51:37;3.10;99.90
30186;DHT22;31152;49.190;8.122;2022-11-06T05:54:06;3.00;99.90
30186;DHT22;31152;49.190;8.122;2022-11-06T05:56:32;2.90;99.90
30186;DHT22;31152;49.190;8.122;2022-11-06T05:59:01;2.90;99.90
30186;DHT22;31152;49.190;8.122;2022-11-06T06:01:28;2.80;99.90
30186;DHT22;31152;49.190;8.122;2022-11-06T06:03:56;2.80;99.90
30186;DHT22;31152;49.190;8.122;2022-11-06T06:06:25;2.80;99.90
30186;DHT22;31152;49.190;8.122;2022-11-06T06:08:52;2.80;99.90
30186;DHT22;31152;49.190;8.122;2022-11-06T06:11:18;2.80;99.90
30186;DHT22;31152;49.190;8.122;2022-11-06T06:13:47;2.80;99.90
30186;DHT22;31152;49.190;8.122;2022-11-06T06:16:14;2.70;99.90
30186;DHT22;31152;49.190;8.122;2022-11-06T06:18:41;2.70;99.90
30186;DHT22;31152;49.190;8.122;2022-11-06T06:21:10;2.70;99.90
30186;DHT22;31152;49.190;8.122;2022-11-06T06:23:37;2.70;99.90
30186;DHT22;31152;49.190;8.122;2022-11-06T06:26:06;2.70;99.90
30186;DHT22;31152;49.190;8.122;2022-11-06T06:28:33;2.70;99.90
30186;DHT22;31152;49.190;8.122;2022-11-06T06:31:03;2.80;99.90
30186;DHT22;31152;49.190;8.122;2022-11-06T06:33:33;2.70;99.90
30186;DHT22;31152;49.190;8.122;2022-11-06T06:36:04;2.80;99.90
30186;DHT22;31152;49.190;8.122;2022-11-06T06:38:31;2.80;99.90
30186;DHT22;31152;49.190;8.122;2022-11-06T06:41:02;2.80;99.90
30186;DHT22;31152;49.190;8.122;2022-11-06T06:43:31;2.80;99.90
30186;DHT22;31152;49.190;8.122;2022-11-06T06:45:59;2.90;99.90
30186;DHT22;31152;49.190;8.122;2022-11-06T06:48:27;2.90;99.90
30186;DHT22;31152;49.190;8.122;2022-11-06T06:51:00;3.00;99.90
30186;DHT22;31152;49.190;8.122;2022-11-06T06:53:28;3.00;99.90
30186;DHT22;31152;49.190;8.122;2022-11-06T06:55:57;3.00;99.90
30186;DHT22;31152;49.190;8.122;2022-11-06T06:58:26;3.00;99.90
30186;DHT22;31152;49.190;8.122;2022-11-06T07:00:53;3.10;99.90
30186;DHT22;31152;49.190;8.122;2022-11-06T07:03:21;3.10;99.90
30186;DHT22;31152;49.190;8.122;2022-11-06T07:05:50;3.10;99.90
30186;DHT22;31152;49.190;8.122;2022-11-06T07:08:16;3.20;99.90
30186;DHT22;31152;49.190;8.122;2022-11-06T07:10:45;3.20;99.90
30186;DHT22;31152;49.190;8.122;2022-11-06T07:13:15;3.30;99.90
30186;DHT22;31152;49.190;8.122;2022-11-06T07:15:42;3.30;99.90
30186;DHT22;31152;49.190;8.122;2022-11-06T07:18:09;3.30;99.90
30186;DHT22;31152;49.190;8.122;2022-11-06T07:20:36;3.40;99.90
30186;DHT22;31152;49.190;8.122;2022-11-06T07:23:06;3.40;99.90
30186;DHT22;31152;49.190;8.122;2022-11-06T07:25:34;3.40;99.90
30186;DHT22;31152;49.190;8.122;2022-11-06T07:28:02;3.50;99.90
30186;DHT22;31152;49.190;8.122;2022-11-06T07:30:29;3.50;99.90
30186;DHT22;31152;49.190;8.122;2022-11-06T07:33:01;3.50;99.90
30186;DHT22;31152;49.190;8.122;2022-11-06T07:35:28;3.50;99.90
30186;DHT22;31152;49.190;8.122;2022-11-06T07:37:56;3.50;99.90
30186;DHT22;31152;49.190;8.122;2022-11-06T07:40:25;3.40;99.90
30186;DHT22;31152;49.190;8.122;2022-11-06T07:42:51;3.40;99.90
30186;DHT22;31152;49.190;8.122;2022-11-06T07:45:18;3.30;99.90
30186;DHT22;31152;49.190;8.122;2022-11-06T07:47:45;3.30;99.90
30186;DHT22;31152;49.190;8.122;2022-11-06T07:50:14;3.30;99.90
30186;DHT22;31152;49.190;8.122;2022-11-06T07:52:41;3.30;99.90
30186;DHT22;31152;49.190;8.122;2022-11-06T07:55:12;3.20;99.90
30186;DHT22;31152;49.190;8.122;2022-11-06T07:57:38;3.20;99.90
30186;DHT22;31152;49.190;8.122;2022-11-06T08:00:06;3.50;99.90
30186;DHT22;31152;49.190;8.122;2022-11-06T08:02:32;4.00;99.90
30186;DHT22;31152;49.190;8.122;2022-11-06T08:05:02;4.10;99.90
30186;DHT22;31152;49.190;8.122;2022-11-06T08:07:31;3.90;99.90
30186;DHT22;31152;49.190;8.122;2022-11-06T08:09:57;3.90;99.90
30186;DHT22;31152;49.190;8.122;2022-11-06T08:12:24;3.70;99.90
30186;DHT22;31152;49.190;8.122;2022-11-06T08:14:51;3.70;99.90
30186;DHT22;31152;49.190;8.122;2022-11-06T08:17:18;3.80;99.90
30186;DHT22;31152;49.190;8.122;2022-11-06T08:19:44;3.90;99.90
30186;DHT22;31152;49.190;8.122;2022-11-06T08:22:13;4.00;99.90
30186;DHT22;31152;49.190;8.122;2022-11-06T08:24:40;4.20;99.90
30186;DHT22;31152;49.190;8.122;2022-11-06T08:27:09;4.40;99.90
30186;DHT22;31152;49.190;8.122;2022-11-06T08:29:36;4.50;99.90
30186;DHT22;31152;49.190;8.122;2022-11-06T08:32:07;4.50;99.90
30186;DHT22;31152;49.190;8.122;2022-11-06T08:34:38;4.60;99.90
30186;DHT22;31152;49.190;8.122;2022-11-06T08:37:08;4.70;99.90
30186;DHT22;31152;49.190;8.122;2022-11-06T08:39:36;4.70;99.90
30186;DHT22;31152;49.190;8.122;2022-11-06T08:42:03;4.70;99.90
30186;DHT22;31152;49.190;8.122;2022-11-06T08:44:32;4.90;99.90
30186;DHT22;31152;49.190;8.122;2022-11-06T08:46:59;4.90;99.90
30186;DHT22;31152;49.190;8.122;2022-11-06T08:49:30;4.90;99.90
30186;DHT22;31152;49.190;8.122;2022-11-06T08:51:57;4.90;99.90
30186;DHT22;31152;49.190;8.122;2022-11-06T08:54:24;5.00;99.90
30186;DHT22;31152;49.190;8.122;2022-11-06T08:56:51;5.10;99.90
30186;DHT22;31152;49.190;8.122;2022-11-06T08:59:18;5.30;99.90
30186;DHT22;31152;49.190;8.122;2022-11-06T09:01:44;5.40;99.90
30186;DHT22;31152;49.190;8.122;2022-11-06T09:04:13;5.50;99.90
30186;DHT22;31152;49.190;8.122;2022-11-06T09:06:43;5.60;99.90
30186;DHT22;31152;49.190;8.122;2022-11-06T09:09:14;5.80;99.90
30186;DHT22;31152;49.190;8.122;2022-11-06T09:11:41;6.00;99.90
30186;DHT22;31152;49.190;8.122;2022-11-06T09:14:07;6.10;99.90
30186;DHT22;31152;49.190;8.122;2022-11-06T09:16:34;6.20;99.90
30186;DHT22;31152;49.190;8.122;2022-11-06T09:19:01;6.30;99.90
30186;DHT22;31152;49.190;8.122;2022-11-06T09:21:27;6.30;99.90
30186;DHT22;31152;49.190;8.122;2022-11-06T09:23:54;6.40;99.90
30186;DHT22;31152;49.190;8.122;2022-11-06T09:26:22;6.60;99.90
30186;DHT22;31152;49.190;8.122;2022-11-06T09:28:48;6.70;99.90
30186;DHT22;31152;49.190;8.122;2022-11-06T09:31:15;6.80;99.90
30186;DHT22;31152;49.190;8.122;2022-11-06T09:33:44;6.90;99.90
30186;DHT22;31152;49.190;8.122;2022-11-06T09:36:11;7.00;99.90
30186;DHT22;31152;49.190;8.122;2022-11-06T09:38:40;7.20;99.90
30186;DHT22;31152;49.190;8.122;2022-11-06T09:41:17;7.20;99.90
30186;DHT22;31152;49.190;8.122;2022-11-06T09:46:38;7.80;99.90
30186;DHT22;31152;49.190;8.122;2022-11-06T09:49:19;8.30;99.90
30186;DHT22;31152;49.190;8.122;2022-11-06T09:54:36;9.20;99.90
30186;DHT22;31152;49.190;8.122;2022-11-06T09:57:35;9.40;99.90
30186;DHT22;31152;49.190;8.122;2022-11-06T10:00:04;9.60;99.90
30186;DHT22;31152;49.190;8.122;2022-11-06T10:07:56;9.80;99.90
30186;DHT22;31152;49.190;8.122;2022-11-06T10:23:51;10.00;99.90
30186;DHT22;31152;49.190;8.122;2022-11-06T10:26:34;10.30;99.90
30186;DHT22;31152;49.190;8.122;2022-11-06T10:34:35;10.10;99.90
30186;DHT22;31152;49.190;8.122;2022-11-06T10:37:10;10.00;99.90
30186;DHT22;31152;49.190;8.122;2022-11-06T10:39:38;10.00;99.90
30186;DHT22;31152;49.190;8.122;2022-11-06T10:42:16;9.90;99.90
30186;DHT22;31152;49.190;8.122;2022-11-06T10:44:52;9.90;99.90
30186;DHT22;31152;49.190;8.122;2022-11-06T10:47:23;9.90;99.90
30186;DHT22;31152;49.190;8.122;2022-11-06T10:50:03;10.00;99.90
30186;DHT22;31152;49.190;8.122;2022-11-06T10:58:17;11.10;99.90
30186;DHT22;31152;49.190;8.122;2022-11-06T11:00:47;12.30;99.90
30186;DHT22;31152;49.190;8.122;2022-11-06T11:03:31;13.70;99.90
30186;DHT22;31152;49.190;8.122;2022-11-06T11:05:59;15.20;99.90
30186;DHT22;31152;49.190;8.122;2022-11-06T11:13:43;17.70;99.80
30186;DHT22;31152;49.190;8.122;2022-11-06T11:16:25;18.50;99.10
30186;DHT22;31152;49.190;8.122;2022-11-06T11:18:52;19.10;97.20
30186;DHT22;31152;49.190;8.122;2022-11-06T11:21:25;19.40;94.60
30186;DHT22;31152;49.190;8.122;2022-11-06T11:24:08;20.00;92.90
30186;DHT22;31152;49.190;8.122;2022-11-06T11:26:46;20.00;92.50
30186;DHT22;31152;49.190;8.122;2022-11-06T11:32:03;19.50;91.20
30186;DHT22;31152;49.190;8.122;2022-11-06T11:34:36;19.10;92.00
30186;DHT22;31152;49.190;8.122;2022-11-06T11:37:30;18.70;92.00
30186;DHT22;31152;49.190;8.122;2022-11-06T11:43:22;16.80;94.40
30186;DHT22;31152;49.190;8.122;2022-11-06T11:53:42;14.30;99.90
30186;DHT22;31152;49.190;8.122;2022-11-06T11:56:14;13.70;99.90
30186;DHT22;31152;49.190;8.122;2022-11-06T11:59:02;13.50;99.90
30186;DHT22;31152;49.190;8.122;2022-11-06T12:01:36;13.20;99.90
30186;DHT22;31152;49.190;8.122;2022-11-06T12:04:20;13.00;99.90
30186;DHT22;31152;49.190;8.122;2022-11-06T12:07:03;12.80;99.90
30186;DHT22;31152;49.190;8.122;2022-11-06T12:09:40;12.80;99.90
30186;DHT22;31152;49.190;8.122;2022-11-06T12:12:51;12.80;99.90
30186;DHT22;31152;49.190;8.122;2022-11-06T12:18:02;12.40;99.90
30186;DHT22;31152;49.190;8.122;2022-11-06T12:26:04;11.80;99.90
30186;DHT22;31152;49.190;8.122;2022-11-06T12:28:35;11.80;99.90
30186;DHT22;31152;49.190;8.122;2022-11-06T12:31:11;11.90;99.90
30186;DHT22;31152;49.190;8.122;2022-11-06T12:33:40;11.90;99.90
30186;DHT22;31152;49.190;8.122;2022-11-06T12:36:30;11.90;99.90
30186;DHT22;31152;49.190;8.122;2022-11-06T12:39:19;11.80;99.90
30186;DHT22;31152;49.190;8.122;2022-11-06T12:41:49;11.80;99.90
30186;DHT22;31152;49.190;8.122;2022-11-06T12:44:19;11.50;99.90
30186;DHT22;31152;49.190;8.122;2022-11-06T12:53:00;11.00;99.90
30186;DHT22;31152;49.190;8.122;2022-11-06T12:55:45;10.90;99.90
30186;DHT22;31152;49.190;8.122;2022-11-06T13:09:20;10.60;99.90
30186;DHT22;31152;49.190;8.122;2022-11-06T13:12:14;10.60;99.90
30186;DHT22;31152;49.190;8.122;2022-11-06T13:14:59;10.60;99.90
30186;DHT22;31152;49.190;8.122;2022-11-06T13:17:43;10.60;99.90
30186;DHT22;31152;49.190;8.122;2022-11-06T13:20:35;10.50;99.90
30186;DHT22;31152;49.190;8.122;2022-11-06T13:25:59;10.40;99.90
30186;DHT22;31152;49.190;8.122;2022-11-06T13:28:33;10.40;99.90
30186;DHT22;31152;49.190;8.122;2022-11-06T13:31:06;10.30;99.90
30186;DHT22;31152;49.190;8.122;2022-11-06T13:33:53;10.20;99.90
30186;DHT22;31152;49.190;8.122;2022-11-06T13:36:22;10.20;99.90
30186;DHT22;31152;49.190;8.122;2022-11-06T13:38:53;10.30;99.90
30186;DHT22;31152;49.190;8.122;2022-11-06T13:41:24;10.40;99.90
30186;DHT22;31152;49.190;8.122;2022-11-06T13:44:03;10.40;99.90
30186;DHT22;31152;49.190;8.122;2022-11-06T13:47:01;10.50;99.90
30186;DHT22;31152;49.190;8.122;2022-11-06T13:49:43;10.50;99.90
30186;DHT22;31152;49.190;8.122;2022-11-06T13:52:18;10.60;99.90
30186;DHT22;31152;49.190;8.122;2022-11-06T13:54:58;10.70;99.90
30186;DHT22;31152;49.190;8.122;2022-11-06T13:57:54;10.70;99.90
30186;DHT22;31152;49.190;8.122;2022-11-06T14:03:41;10.70;99.90
30186;DHT22;31152;49.190;8.122;2022-11-06T14:08:54;10.90;99.90
30186;DHT22;31152;49.190;8.122;2022-11-06T14:11:25;10.90;99.90
30186;DHT22;31152;49.190;8.122;2022-11-06T14:16:37;10.80;99.90
30186;DHT22;31152;49.190;8.122;2022-11-06T14:19:25;10.80;99.90
30186;DHT22;31152;49.190;8.122;2022-11-06T14:21:53;10.70;99.90
30186;DHT22;31152;49.190;8.122;2022-11-06T14:24:43;10.50;99.90
30186;DHT22;31152;49.190;8.122;2022-11-06T14:30:05;10.30;99.90
30186;DHT22;31152;49.190;8.122;2022-11-06T14:32:40;10.20;99.90
30186;DHT22;31152;49.190;8.122;2022-11-06T14:35:47;10.20;99.90
30186;DHT22;31152;49.190;8.122;2022-11-06T14:38:34;10.20;99.90
30186;DHT22;31152;49.190;8.122;2022-11-06T14:41:27;10.10;99.90
30186;DHT22;31152;49.190;8.122;2022-11-06T14:43:54;10.00;99.90
30186;DHT22;31152;49.190;8.122;2022-11-06T14:46:22;10.00;99.90
30186;DHT22;31152;49.190;8.122;2022-11-06T14:48:51;10.00;99.90
30186;DHT22;31152;49.190;8.122;2022-11-06T14:51:25;10.00;99.90
30186;DHT22;31152;49.190;8.122;2022-11-06T14:54:00;9.90;99.90
30186;DHT22;31152;49.190;8.122;2022-11-06T14:56:30;9.80;99.90
30186;DHT22;31152;49.190;8.122;2022-11-06T14:59:06;9.90;99.90
30186;DHT22;31152;49.190;8.122;2022-11-06T15:01:37;9.90;99.90
30186;DHT22;31152;49.190;8.122;2022-11-06T15:04:16;9.80;99.90
30186;DHT22;31152;49.190;8.122;2022-11-06T15:06:49;9.80;99.90
30186;DHT22;31152;49.190;8.122;2022-11-06T15:11:56;9.80;99.90
30186;DHT22;31152;49.190;8.122;2022-11-06T15:16:54;9.60;99.90
30186;DHT22;31152;49.190;8.122;2022-11-06T15:19:28;9.60;99.90
30186;DHT22;31152;49.190;8.122;2022-11-06T15:24:40;9.60;99.90
30186;DHT22;31152;49.190;8.122;2022-11-06T15:27:15;9.60;99.90
30186;DHT22;31152;49.190;8.122;2022-11-06T15:29:44;9.50;99.90
30186;DHT22;31152;49.190;8.122;2022-11-06T15:35:06;9.50;99.90
30186;DHT22;31152;49.190;8.122;2022-11-06T15:37:34;9.50;99.90
30186;DHT22;31152;49.190;8.122;2022-11-06T15:40:03;9.40;99.90
30186;DHT22;31152;49.190;8.122;2022-11-06T15:42:35;9.40;99.90
30186;DHT22;31152;49.190;8.122;2022-11-06T15:47:34;9.40;99.90
30186;DHT22;31152;49.190;8.122;2022-11-06T15:50:30;9.30;99.90
30186;DHT22;31152;49.190;8.122;2022-11-06T15:55:55;9.30;99.90
30186;DHT22;31152;49.190;8.122;2022-11-06T15:58:29;9.20;99.90
30186;DHT22;31152;49.190;8.122;2022-11-06T16:00:58;9.20;99.90
30186;DHT22;31152;49.190;8.122;2022-11-06T16:03:30;9.10;99.90
30186;DHT22;31152;49.190;8.122;2022-11-06T16:06:02;9.10;99.90
30186;DHT22;31152;49.190;8.122;2022-11-06T16:08:30;9.00;99.90
30186;DHT22;31152;49.190;8.122;2022-11-06T16:10:59;9.00;99.90
30186;DHT22;31152;49.190;8.122;2022-11-06T16:13:27;9.00;99.90
30186;DHT22;31152;49.190;8.122;2022-11-06T16:15:55;9.00;99.90
30186;DHT22;31152;49.190;8.122;2022-11-06T16:21:15;8.90;99.90
30186;DHT22;31152;49.190;8.122;2022-11-06T16:23:47;8.90;99.90
30186;DHT22;31152;49.190;8.122;2022-11-06T16:26:27;8.90;99.90
30186;DHT22;31152;49.190;8.122;2022-11-06T16:29:19;8.90;99.90
30186;DHT22;31152;49.190;8.122;2022-11-06T16:31:56;8.80;99.90
30186;DHT22;31152;49.190;8.122;2022-11-06T16:34:34;8.80;99.90
30186;DHT22;31152;49.190;8.122;2022-11-06T16:37:04;8.70;99.90
30186;DHT22;31152;49.190;8.122;2022-11-06T16:42:33;8.70;99.90
30186;DHT22;31152;49.190;8.122;2022-11-06T16:45:15;8.60;99.90
30186;DHT22;31152;49.190;8.122;2022-11-06T16:50:54;8.50;99.90
30186;DHT22;31152;49.190;8.122;2022-11-06T16:53:27;8.50;99.90
30186;DHT22;31152;49.190;8.122;2022-11-06T16:56:02;8.50;99.90
30186;DHT22;31152;49.190;8.122;2022-11-06T16:58:50;8.40;99.90
30186;DHT22;31152;49.190;8.122;2022-11-06T17:01:17;8.40;99.90
30186;DHT22;31152;49.190;8.122;2022-11-06T17:03:53;8.40;99.90
30186;DHT22;31152;49.190;8.122;2022-11-06T17:06:23;8.40;99.90
30186;DHT22;31152;49.190;8.122;2022-11-06T17:09:05;8.40;99.90
30186;DHT22;31152;49.190;8.122;2022-11-06T17:11:35;8.40;99.90
30186;DHT22;31152;49.190;8.122;2022-11-06T17:14:22;8.30;99.90
30186;DHT22;31152;49.190;8.122;2022-11-06T17:16:52;8.30;99.90
30186;DHT22;31152;49.190;8.122;2022-11-06T17:19:20;8.30;99.90
30186;DHT22;31152;49.190;8.122;2022-11-06T17:21:50;8.30;99.90
30186;DHT22;31152;49.190;8.122;2022-11-06T17:24:22;8.20;99.90
30186;DHT22;31152;49.190;8.122;2022-11-06T17:27:04;8.30;99.90
30186;DHT22;31152;49.190;8.122;2022-11-06T17:29:32;8.20;99.90
30186;DHT22;31152;49.190;8.122;2022-11-06T17:32:02;8.20;99.90
30186;DHT22;31152;49.190;8.122;2022-11-06T17:34:29;8.20;99.90
30186;DHT22;31152;49.190;8.122;2022-11-06T17:36:55;8.20;99.90
30186;DHT22;31152;49.190;8.122;2022-11-06T17:39:22;8.20;99.90
30186;DHT22;31152;49.190;8.122;2022-11-06T17:41:52;8.20;99.90
30186;DHT22;31152;49.190;8.122;2022-11-06T17:44:22;8.20;99.90
30186;DHT22;31152;49.190;8.122;2022-11-06T17:46:49;8.20;99.90
30186;DHT22;31152;49.190;8.122;2022-11-06T17:49:15;8.20;99.90
30186;DHT22;31152;49.190;8.122;2022-11-06T17:51:47;8.20;99.90
30186;DHT22;31152;49.190;8.122;2022-11-06T17:54:24;8.20;99.90
30186;DHT22;31152;49.190;8.122;2022-11-06T17:56:53;8.20;99.90
30186;DHT22;31152;49.190;8.122;2022-11-06T17:59:20;8.20;99.90
30186;DHT22;31152;49.190;8.122;2022-11-06T18:01:47;8.20;99.90
30186;DHT22;31152;49.190;8.122;2022-11-06T18:04:20;8.20;99.90
30186;DHT22;31152;49.190;8.122;2022-11-06T18:06:48;8.20;99.90
30186;DHT22;31152;49.190;8.122;2022-11-06T18:09:17;8.20;99.90
30186;DHT22;31152;49.190;8.122;2022-11-06T18:11:44;8.30;99.90
30186;DHT22;31152;49.190;8.122;2022-11-06T18:14:14;8.30;99.90
30186;DHT22;31152;49.190;8.122;2022-11-06T18:16:46;8.30;99.90
30186;DHT22;31152;49.190;8.122;2022-11-06T18:19:15;8.30;99.90
30186;DHT22;31152;49.190;8.122;2022-11-06T18:21:42;8.30;99.90
30186;DHT22;31152;49.190;8.122;2022-11-06T18:24:09;8.30;99.90
30186;DHT22;31152;49.190;8.122;2022-11-06T18:26:36;8.30;99.90
30186;DHT22;31152;49.190;8.122;2022-11-06T18:29:04;8.30;99.90
30186;DHT22;31152;49.190;8.122;2022-11-06T18:31:32;8.30;99.90
30186;DHT22;31152;49.190;8.122;2022-11-06T18:34:01;8.40;99.90
30186;DHT22;31152;49.190;8.122;2022-11-06T18:36:30;8.40;99.90
30186;DHT22;31152;49.190;8.122;2022-11-06T18:38:59;8.40;99.90
30186;DHT22;31152;49.190;8.122;2022-11-06T18:41:26;8.40;99.90
30186;DHT22;31152;49.190;8.122;2022-11-06T18:43:59;8.40;99.90
30186;DHT22;31152;49.190;8.122;2022-11-06T18:46:26;8.50;99.90
30186;DHT22;31152;49.190;8.122;2022-11-06T18:48:57;8.50;99.90
30186;DHT22;31152;49.190;8.122;2022-11-06T18:51:27;8.50;99.90
30186;DHT22;31152;49.190;8.122;2022-11-06T18:54:04;8.60;99.90